createdAt,value
2016-04-02T00:00:35.360Z,21.93
2016-04-02T00:01:35.380Z,21.93
2016-04-02T00:02:35.382Z,21.89
2016-04-02T00:03:35.385Z,21.92
2016-04-02T00:04:35.404Z,21.92
2016-04-02T00:05:35.421Z,21.92
2016-04-02T00:06:35.409Z,21.94
2016-04-02T00:07:35.427Z,21.9
2016-04-02T00:08:35.414Z,21.89
2016-04-02T00:09:35.432Z,21.94
2016-04-02T00:10:35.450Z,21.92
2016-04-02T00:11:35.454Z,21.93
2016-04-02T00:12:35.456Z,21.86
2016-04-02T00:13:35.474Z,21.92
2016-04-02T00:14:35.462Z,21.86
2016-04-02T00:15:35.464Z,21.93
2016-04-02T00:16:35.467Z,21.85
2016-04-02T00:17:35.501Z,21.89
2016-04-02T00:18:35.487Z,21.89
2016-04-02T00:19:35.506Z,21.92
2016-04-02T00:20:35.508Z,21.89
2016-04-02T00:21:34.762Z,21.89
2016-04-02T00:22:35.514Z,21.92
2016-04-02T00:23:35.533Z,21.86
2016-04-02T00:24:35.520Z,21.93
2016-04-02T00:25:35.522Z,21.85
2016-04-02T00:26:35.572Z,21.92
2016-04-02T00:27:35.559Z,21.76
2016-04-02T00:28:35.562Z,21.85
2016-04-02T00:29:35.564Z,21.92
2016-04-02T00:30:35.566Z,21.9
2016-04-02T00:31:35.585Z,21.86
2016-04-02T00:32:35.572Z,21.94
2016-04-02T00:33:35.590Z,21.92
2016-04-02T00:34:35.609Z,21.93
2016-04-02T00:35:35.601Z,21.83
2016-04-02T00:36:35.619Z,21.82
2016-04-02T00:37:35.606Z,21.86
2016-04-02T00:38:35.609Z,21.83
2016-04-02T00:39:35.627Z,21.9
2016-04-02T00:40:35.661Z,21.85
2016-04-02T00:41:35.633Z,21.85
2016-04-02T00:42:35.651Z,21.85
2016-04-02T00:43:35.653Z,21.9
2016-04-02T00:44:35.657Z,21.86
2016-04-02T00:45:35.675Z,21.82
2016-04-02T00:46:35.678Z,21.82
2016-04-02T00:47:35.680Z,21.78
2016-04-02T00:48:35.714Z,21.92
2016-04-02T00:49:35.701Z,21.78
2016-04-02T00:50:35.719Z,21.86
2016-04-02T00:51:35.706Z,21.8
2016-04-02T00:52:35.709Z,21.8
2016-04-02T00:53:35.711Z,21.82
2016-04-02T00:54:35.714Z,21.82
2016-04-02T00:55:35.717Z,21.78
2016-04-02T00:56:35.751Z,21.78
2016-04-02T00:57:35.754Z,21.78
2016-04-02T00:58:35.756Z,21.83
2016-04-02T00:59:35.760Z,21.76
2016-04-02T01:00:35.746Z,21.83
2016-04-02T01:01:35.765Z,21.82
2016-04-02T01:02:35.768Z,21.9
2016-04-02T01:03:35.770Z,21.78
2016-04-02T01:04:35.788Z,21.83
2016-04-02T01:05:35.791Z,21.78
2016-04-02T01:06:35.794Z,21.82
2016-04-02T01:07:35.796Z,21.82
2016-04-02T01:08:35.861Z,21.77
2016-04-02T01:09:35.802Z,21.8
2016-04-02T01:10:35.836Z,21.76
2016-04-02T01:11:35.807Z,21.78
2016-04-02T01:12:35.857Z,21.82
2016-04-02T01:13:35.828Z,21.77
2016-04-02T01:14:35.862Z,21.83
2016-04-02T01:15:35.848Z,21.77
2016-04-02T01:16:35.868Z,21.89
2016-04-02T01:17:35.870Z,21.8
2016-04-02T01:18:35.888Z,21.82
2016-04-02T01:19:35.891Z,21.8
2016-04-02T01:20:35.894Z,21.74
2016-04-02T01:21:35.897Z,21.76
2016-04-02T01:22:35.900Z,21.8
2016-04-02T01:23:35.918Z,21.8
2016-04-02T01:24:35.920Z,21.8
2016-04-02T01:25:35.938Z,21.74
2016-04-02T01:26:35.910Z,21.74
2016-04-02T01:27:35.975Z,21.74
2016-04-02T01:28:35.931Z,21.77
2016-04-02T01:29:35.966Z,21.78
2016-04-02T01:30:35.936Z,21.78
2016-04-02T01:31:35.971Z,21.77
2016-04-02T01:32:35.958Z,21.76
2016-04-02T01:33:35.976Z,21.8
2016-04-02T01:34:35.994Z,21.78
2016-04-02T01:35:35.982Z,21.71
2016-04-02T01:36:35.999Z,21.78
2016-04-02T01:37:36.018Z,21.76
2016-04-02T01:38:36.052Z,21.78
2016-04-02T01:39:36.007Z,21.76
2016-04-02T01:40:36.026Z,21.8
2016-04-02T01:41:36.013Z,21.74
2016-04-02T01:42:36.015Z,21.78
2016-04-02T01:43:36.034Z,21.77
2016-04-02T01:44:36.037Z,21.76
2016-04-02T01:45:36.070Z,21.8
2016-04-02T01:46:36.042Z,21.71
2016-04-02T01:47:36.107Z,21.71
2016-04-02T01:48:36.062Z,21.71
2016-04-02T01:49:36.081Z,21.73
2016-04-02T01:50:36.067Z,21.71
2016-04-02T01:51:36.086Z,21.82
2016-04-02T01:52:36.089Z,21.73
2016-04-02T01:53:36.123Z,21.78
2016-04-02T01:54:36.094Z,21.73
2016-04-02T01:55:36.128Z,21.73
2016-04-02T01:56:36.109Z,21.78
2016-04-02T01:57:36.100Z,21.71
2016-04-02T01:58:36.106Z,21.77
2016-04-02T01:59:36.097Z,21.67
2016-04-02T02:00:36.135Z,21.73
2016-04-02T02:01:36.084Z,21.77
2016-04-02T02:02:36.082Z,21.7
2016-04-02T02:03:36.128Z,21.77
2016-04-02T02:04:36.111Z,21.8
2016-04-02T02:05:36.094Z,21.74
2016-04-02T02:06:36.110Z,21.73
2016-04-02T02:07:35.939Z,21.66
2016-04-02T02:08:36.137Z,21.76
2016-04-02T02:09:36.107Z,21.74
2016-04-02T02:10:36.123Z,21.66
2016-04-02T02:11:36.125Z,21.68
2016-04-02T02:12:36.128Z,21.64
2016-04-02T02:13:36.162Z,21.67
2016-04-02T02:14:36.140Z,21.74
2016-04-02T02:15:36.174Z,21.7
2016-04-02T02:16:36.162Z,21.74
2016-04-02T02:17:36.148Z,21.66
2016-04-02T02:18:36.181Z,21.73
2016-04-02T02:19:36.168Z,21.74
2016-04-02T02:20:36.170Z,21.7
2016-04-02T02:21:36.188Z,21.67
2016-04-02T02:22:36.175Z,21.66
2016-04-02T02:23:36.193Z,21.66
2016-04-02T02:24:36.196Z,21.67
2016-04-02T02:25:36.230Z,21.66
2016-04-02T02:26:36.201Z,21.74
2016-04-02T02:27:36.237Z,21.66
2016-04-02T02:28:36.239Z,21.68
2016-04-02T02:29:36.242Z,21.64
2016-04-02T02:30:36.244Z,21.62
2016-04-02T02:31:36.278Z,21.61
2016-04-02T02:32:36.250Z,21.66
2016-04-02T02:33:36.253Z,21.7
2016-04-02T02:34:36.271Z,21.7
2016-04-02T02:35:36.258Z,21.7
2016-04-02T02:36:36.292Z,21.71
2016-04-02T02:37:36.279Z,21.68
2016-04-02T02:38:36.313Z,21.66
2016-04-02T02:39:36.284Z,21.67
2016-04-02T02:40:36.302Z,21.67
2016-04-02T02:41:36.306Z,21.73
2016-04-02T02:42:36.339Z,21.66
2016-04-02T02:43:36.327Z,21.67
2016-04-02T02:44:36.330Z,21.67
2016-04-02T02:45:36.332Z,21.64
2016-04-02T02:46:36.350Z,21.62
2016-04-02T02:47:36.353Z,21.62
2016-04-02T02:48:36.355Z,21.68
2016-04-02T02:49:36.358Z,21.68
2016-04-02T02:50:36.376Z,21.61
2016-04-02T02:51:36.379Z,21.7
2016-04-02T02:52:36.366Z,21.61
2016-04-02T02:53:36.399Z,21.71
2016-04-02T02:54:36.387Z,21.68
2016-04-02T02:55:36.421Z,21.67
2016-04-02T02:56:36.408Z,21.66
2016-04-02T02:57:36.427Z,21.73
2016-04-02T02:58:36.413Z,21.71
2016-04-02T02:59:36.432Z,21.71
2016-04-02T03:00:36.434Z,21.64
2016-04-02T03:01:36.421Z,21.68
2016-04-02T03:02:36.440Z,21.71
2016-04-02T03:03:36.442Z,21.56
2016-04-02T03:04:36.462Z,21.66
2016-04-02T03:05:36.464Z,21.61
2016-04-02T03:06:36.482Z,21.59
2016-04-02T03:07:36.470Z,21.66
2016-04-02T03:08:36.504Z,21.66
2016-04-02T03:09:36.490Z,21.58
2016-04-02T03:10:36.509Z,21.64
2016-04-02T03:11:36.495Z,21.64
2016-04-02T03:12:36.498Z,21.61
2016-04-02T03:13:36.501Z,21.59
2016-04-02T03:14:36.503Z,21.62
2016-04-02T03:15:36.522Z,21.61
2016-04-02T03:16:36.524Z,21.68
2016-04-02T03:17:36.543Z,21.62
2016-04-02T03:18:36.546Z,21.67
2016-04-02T03:19:36.549Z,21.66
2016-04-02T03:20:36.552Z,21.61
2016-04-02T03:21:36.569Z,21.62
2016-04-02T03:22:36.572Z,21.66
2016-04-02T03:23:36.574Z,21.62
2016-04-02T03:24:36.577Z,21.64
2016-04-02T03:25:36.596Z,21.61
2016-04-02T03:26:36.598Z,21.61
2016-04-02T03:27:36.601Z,21.7
2016-04-02T03:28:36.619Z,21.67
2016-04-02T03:29:36.607Z,21.66
2016-04-02T03:30:36.625Z,21.64
2016-04-02T03:31:36.643Z,21.56
2016-04-02T03:32:36.630Z,21.59
2016-04-02T03:33:36.648Z,21.55
2016-04-02T03:34:36.651Z,21.66
2016-04-02T03:35:36.654Z,21.61
2016-04-02T03:36:36.673Z,21.59
2016-04-02T03:37:36.659Z,21.68
2016-04-02T03:38:36.662Z,21.66
2016-04-02T03:39:36.664Z,21.66
2016-04-02T03:40:36.683Z,21.66
2016-04-02T03:41:36.686Z,21.64
2016-04-02T03:42:36.689Z,21.56
2016-04-02T03:43:36.707Z,21.55
2016-04-02T03:44:36.694Z,21.58
2016-04-02T03:45:36.728Z,21.53
2016-04-02T03:46:36.715Z,21.66
2016-04-02T03:47:36.717Z,21.58
2016-04-02T03:48:36.736Z,21.56
2016-04-02T03:49:36.738Z,21.62
2016-04-02T03:50:36.741Z,21.66
2016-04-02T03:51:36.759Z,21.55
2016-04-02T03:52:36.762Z,21.62
2016-04-02T03:53:36.749Z,21.55
2016-04-02T03:54:36.782Z,21.55
2016-04-02T03:55:36.770Z,21.55
2016-04-02T03:56:36.788Z,21.62
2016-04-02T03:57:36.791Z,21.62
2016-04-02T03:58:36.794Z,21.55
2016-04-02T03:59:36.812Z,21.58
2016-04-02T04:00:36.799Z,21.62
2016-04-02T04:01:36.801Z,21.59
2016-04-02T04:02:36.835Z,21.55
2016-04-02T04:03:36.823Z,21.62
2016-04-02T04:04:36.826Z,21.58
2016-04-02T04:05:36.844Z,21.53
2016-04-02T04:06:36.863Z,21.56
2016-04-02T04:07:36.849Z,21.53
2016-04-02T04:08:36.852Z,21.61
2016-04-02T04:09:36.855Z,21.59
2016-04-02T04:10:36.873Z,21.62
2016-04-02T04:11:36.907Z,21.55
2016-04-02T04:12:36.878Z,21.59
2016-04-02T04:13:36.881Z,21.61
2016-04-02T04:14:36.900Z,21.56
2016-04-02T04:15:36.886Z,21.59
2016-04-02T04:16:36.905Z,21.55
2016-04-02T04:17:36.938Z,21.56
2016-04-02T04:18:36.910Z,21.58
2016-04-02T04:19:36.928Z,21.59
2016-04-02T04:20:36.931Z,21.56
2016-04-02T04:21:36.950Z,21.56
2016-04-02T04:22:36.952Z,21.53
2016-04-02T04:23:36.955Z,21.59
2016-04-02T04:24:36.958Z,21.55
2016-04-02T04:25:36.960Z,21.56
2016-04-02T04:26:36.963Z,21.55
2016-04-02T04:27:36.981Z,21.55
2016-04-02T04:28:36.999Z,21.53
2016-04-02T04:29:37.001Z,21.52
2016-04-02T04:30:36.989Z,21.59
2016-04-02T04:31:37.023Z,21.59
2016-04-02T04:32:36.995Z,21.58
2016-04-02T04:33:37.012Z,21.66
2016-04-02T04:34:37.032Z,21.58
2016-04-02T04:35:37.034Z,21.61
2016-04-02T04:36:37.037Z,21.64
2016-04-02T04:37:37.024Z,21.46
2016-04-02T04:38:37.042Z,21.51
2016-04-02T04:39:37.045Z,21.59
2016-04-02T04:40:37.078Z,21.62
2016-04-02T04:41:37.050Z,21.58
2016-04-02T04:42:37.084Z,21.59
2016-04-02T04:43:37.087Z,21.51
2016-04-02T04:44:37.074Z,21.52
2016-04-02T04:45:37.092Z,21.55
2016-04-02T04:46:37.095Z,21.61
2016-04-02T04:47:37.114Z,21.61
2016-04-02T04:48:37.100Z,21.52
2016-04-02T04:49:37.103Z,21.52
2016-04-02T04:50:37.105Z,21.66
2016-04-02T04:51:37.124Z,21.55
2016-04-02T04:52:37.127Z,21.48
2016-04-02T04:53:37.144Z,21.58
2016-04-02T04:54:37.147Z,21.55
2016-04-02T04:55:37.135Z,21.55
2016-04-02T04:56:37.152Z,21.55
2016-04-02T04:57:37.156Z,21.56
2016-04-02T04:58:37.174Z,21.58
2016-04-02T04:59:37.177Z,21.59
2016-04-02T05:00:37.196Z,21.43
2016-04-02T05:01:37.182Z,21.61
2016-04-02T05:02:37.185Z,21.58
2016-04-02T05:03:37.218Z,21.58
2016-04-02T05:04:37.206Z,21.52
2016-04-02T05:05:37.209Z,21.49
2016-04-02T05:06:37.211Z,21.56
2016-04-02T05:07:37.229Z,21.61
2016-04-02T05:08:37.231Z,21.52
2016-04-02T05:09:37.234Z,21.59
2016-04-02T05:10:37.237Z,21.61
2016-04-02T05:11:37.255Z,21.53
2016-04-02T05:12:37.259Z,21.56
2016-04-02T05:13:37.261Z,21.59
2016-04-02T05:14:37.264Z,21.58
2016-04-02T05:15:37.282Z,21.61
2016-04-02T05:16:37.284Z,21.62
2016-04-02T05:17:37.287Z,21.58
2016-04-02T05:18:37.289Z,21.67
2016-04-02T05:19:37.292Z,21.53
2016-04-02T05:20:37.295Z,21.49
2016-04-02T05:21:37.330Z,21.48
2016-04-02T05:22:37.317Z,21.59
2016-04-02T05:23:37.320Z,21.61
2016-04-02T05:24:37.338Z,21.55
2016-04-02T05:25:37.341Z,21.58
2016-04-02T05:26:37.343Z,21.56
2016-04-02T05:27:37.346Z,21.59
2016-04-02T05:28:37.349Z,21.56
2016-04-02T05:29:37.351Z,21.59
2016-04-02T05:30:37.369Z,21.64
2016-04-02T05:31:37.215Z,21.61
2016-04-02T05:32:37.374Z,21.64
2016-04-02T05:33:37.393Z,21.61
2016-04-02T05:34:37.395Z,21.53
2016-04-02T05:35:37.398Z,21.62
2016-04-02T05:36:37.401Z,21.61
2016-04-02T05:37:37.420Z,21.61
2016-04-02T05:38:37.407Z,21.56
2016-04-02T05:39:37.425Z,21.53
2016-04-02T05:40:37.428Z,21.59
2016-04-02T05:41:37.445Z,21.56
2016-04-02T05:42:37.433Z,21.59
2016-04-02T05:43:37.436Z,21.56
2016-04-02T05:44:37.453Z,21.56
2016-04-02T05:45:37.472Z,21.59
2016-04-02T05:46:37.458Z,21.66
2016-04-02T05:47:37.461Z,21.52
2016-04-02T05:48:37.495Z,21.55
2016-04-02T05:49:37.483Z,21.59
2016-04-02T05:50:37.486Z,21.58
2016-04-02T05:51:37.504Z,21.56
2016-04-02T05:52:37.491Z,21.46
2016-04-02T05:53:37.509Z,21.56
2016-04-02T05:54:37.528Z,21.59
2016-04-02T05:55:37.514Z,21.56
2016-04-02T05:56:37.533Z,21.56
2016-04-02T05:57:37.535Z,21.58
2016-04-02T05:58:37.538Z,21.59
2016-04-02T05:59:37.541Z,21.53
2016-04-02T06:00:37.560Z,21.53
2016-04-02T06:01:37.547Z,21.62
2016-04-02T06:02:37.549Z,21.58
2016-04-02T06:03:37.568Z,21.55
2016-04-02T06:04:37.571Z,21.53
2016-04-02T06:05:37.573Z,21.58
2016-04-02T06:06:37.607Z,21.48
2016-04-02T06:07:37.593Z,21.52
2016-04-02T06:08:37.612Z,21.58
2016-04-02T06:09:37.599Z,21.48
2016-04-02T06:10:37.633Z,21.59
2016-04-02T06:11:37.620Z,21.55
2016-04-02T06:12:37.653Z,21.51
2016-04-02T06:13:37.641Z,21.56
2016-04-02T06:14:37.675Z,21.58
2016-04-02T06:15:37.662Z,21.61
2016-04-02T06:16:37.650Z,21.53
2016-04-02T06:17:37.668Z,21.66
2016-04-02T06:18:37.655Z,21.53
2016-04-02T06:19:37.673Z,21.45
2016-04-02T06:20:37.660Z,21.48
2016-04-02T06:21:37.678Z,21.48
2016-04-02T06:22:37.681Z,21.67
2016-04-02T06:23:37.699Z,21.67
2016-04-02T06:24:37.702Z,21.55
2016-04-02T06:25:37.719Z,21.55
2016-04-02T06:26:37.707Z,21.49
2016-04-02T06:27:37.741Z,21.59
2016-04-02T06:28:37.712Z,21.59
2016-04-02T06:29:37.746Z,21.52
2016-04-02T06:30:37.733Z,21.59
2016-04-02T06:31:37.751Z,21.52
2016-04-02T06:32:37.739Z,21.56
2016-04-02T06:33:37.773Z,21.58
2016-04-02T06:34:37.760Z,21.61
2016-04-02T06:35:37.762Z,21.59
2016-04-02T06:36:37.781Z,21.59
2016-04-02T06:37:37.784Z,21.59
2016-04-02T06:38:37.787Z,21.56
2016-04-02T06:39:37.790Z,21.61
2016-04-02T06:40:37.793Z,21.49
2016-04-02T06:41:37.795Z,21.59
2016-04-02T06:42:37.813Z,21.56
2016-04-02T06:43:37.816Z,21.58
2016-04-02T06:44:37.834Z,21.55
2016-04-02T06:45:37.837Z,21.52
2016-04-02T06:46:37.839Z,21.49
2016-04-02T06:47:37.842Z,21.59
2016-04-02T06:48:37.845Z,21.64
2016-04-02T06:49:37.847Z,21.56
2016-04-02T06:50:37.866Z,21.62
2016-04-02T06:51:37.883Z,21.56
2016-04-02T06:52:37.886Z,21.59
2016-04-02T06:53:37.874Z,21.59
2016-04-02T06:54:37.892Z,21.53
2016-04-02T06:55:37.880Z,21.62
2016-04-02T06:56:37.882Z,21.62
2016-04-02T06:57:37.900Z,21.66
2016-04-02T06:58:37.902Z,21.68
2016-04-02T06:59:37.921Z,21.51
2016-04-02T07:00:37.924Z,21.66
2016-04-02T07:01:37.926Z,21.51
2016-04-02T07:02:37.929Z,21.62
2016-04-02T07:03:37.931Z,21.66
2016-04-02T07:04:37.934Z,21.62
2016-04-02T07:05:37.952Z,21.64
2016-04-02T07:06:37.955Z,21.64
2016-04-02T07:07:37.957Z,21.59
2016-04-02T07:08:37.961Z,21.66
2016-04-02T07:09:37.979Z,21.62
2016-04-02T07:10:37.982Z,21.64
2016-04-02T07:11:38.001Z,21.68
2016-04-02T07:12:38.003Z,21.53
2016-04-02T07:13:38.006Z,21.61
2016-04-02T07:14:38.024Z,21.66
2016-04-02T07:15:38.011Z,21.61
2016-04-02T07:16:38.014Z,21.64
2016-04-02T07:17:38.032Z,21.61
2016-04-02T07:18:38.034Z,21.64
2016-04-02T07:19:38.037Z,21.67
2016-04-02T07:20:38.040Z,21.61
2016-04-02T07:21:38.042Z,21.64
2016-04-02T07:22:38.061Z,21.58
2016-04-02T07:23:38.064Z,21.64
2016-04-02T07:24:38.066Z,21.59
2016-04-02T07:25:38.069Z,21.59
2016-04-02T07:26:38.087Z,21.58
2016-04-02T07:27:38.090Z,21.68
2016-04-02T07:28:38.093Z,21.71
2016-04-02T07:29:38.096Z,21.68
2016-04-02T07:30:38.099Z,21.71
2016-04-02T07:31:38.116Z,21.61
2016-04-02T07:32:38.119Z,21.71
2016-04-02T07:33:38.121Z,21.67
2016-04-02T07:34:38.124Z,21.66
2016-04-02T07:35:38.127Z,21.64
2016-04-02T07:36:38.146Z,21.64
2016-04-02T07:37:38.148Z,21.74
2016-04-02T07:38:38.151Z,21.66
2016-04-02T07:39:38.168Z,21.66
2016-04-02T07:40:38.171Z,21.7
2016-04-02T07:41:38.159Z,21.7
2016-04-02T07:42:38.193Z,21.71
2016-04-02T07:43:38.180Z,21.71
2016-04-02T07:44:38.182Z,21.62
2016-04-02T07:45:38.201Z,21.67
2016-04-02T07:46:38.203Z,21.62
2016-04-02T07:47:38.206Z,21.67
2016-04-02T07:48:38.209Z,21.66
2016-04-02T07:49:38.227Z,21.66
2016-04-02T07:50:38.231Z,21.66
2016-04-02T07:51:38.233Z,21.66
2016-04-02T07:52:38.236Z,21.67
2016-04-02T07:53:38.254Z,21.67
2016-04-02T07:54:38.272Z,21.67
2016-04-02T07:55:38.259Z,21.66
2016-04-02T07:56:38.261Z,21.76
2016-04-02T07:57:38.280Z,21.78
2016-04-02T07:58:38.282Z,21.76
2016-04-02T07:59:38.285Z,21.71
2016-04-02T08:00:38.288Z,21.76
2016-04-02T08:01:38.291Z,21.68
2016-04-02T08:02:38.310Z,21.76
2016-04-02T08:03:38.328Z,21.78
2016-04-02T08:04:38.315Z,21.71
2016-04-02T08:05:38.318Z,21.76
2016-04-02T08:06:38.335Z,21.74
2016-04-02T08:07:38.338Z,21.71
2016-04-02T08:08:38.340Z,21.82
2016-04-02T08:09:38.343Z,21.74
2016-04-02T08:10:38.346Z,21.77
2016-04-02T08:11:38.364Z,21.78
2016-04-02T08:12:38.367Z,21.74
2016-04-02T08:13:38.354Z,21.74
2016-04-02T08:14:38.373Z,21.74
2016-04-02T08:15:38.407Z,21.76
2016-04-02T08:16:38.378Z,21.77
2016-04-02T08:17:38.412Z,21.76
2016-04-02T08:18:38.398Z,21.74
2016-04-02T08:19:38.401Z,21.82
2016-04-02T08:20:38.420Z,21.8
2016-04-02T08:21:38.423Z,21.78
2016-04-02T08:22:38.426Z,21.78
2016-04-02T08:23:38.444Z,21.76
2016-04-02T08:24:38.431Z,21.83
2016-04-02T08:25:38.433Z,21.77
2016-04-02T08:26:38.452Z,21.8
2016-04-02T08:27:38.454Z,21.82
2016-04-02T08:28:38.472Z,21.86
2016-04-02T08:29:38.460Z,21.82
2016-04-02T08:30:38.494Z,21.85
2016-04-02T08:31:38.481Z,21.82
2016-04-02T08:32:38.515Z,21.89
2016-04-02T08:33:38.518Z,21.92
2016-04-02T08:34:38.504Z,21.9
2016-04-02T08:35:38.507Z,21.9
2016-04-02T08:36:38.525Z,21.94
2016-04-02T08:37:38.512Z,21.93
2016-04-02T08:38:38.531Z,21.99
2016-04-02T08:39:38.534Z,21.96
2016-04-02T08:40:38.551Z,21.99
2016-04-02T08:41:38.555Z,21.99
2016-04-02T08:42:38.573Z,21.93
2016-04-02T08:43:38.545Z,22
2016-04-02T08:44:38.578Z,21.9
2016-04-02T08:45:38.581Z,22
2016-04-02T08:46:38.568Z,22.05
2016-04-02T08:47:38.602Z,22
2016-04-02T08:48:38.589Z,22.05
2016-04-02T08:49:38.592Z,22.07
2016-04-02T08:50:38.609Z,22.08
2016-04-02T08:51:38.612Z,22.04
2016-04-02T08:52:38.631Z,22.02
2016-04-02T08:53:38.633Z,22.04
2016-04-02T08:54:38.636Z,22.12
2016-04-02T08:55:38.639Z,22.14
2016-04-02T08:56:38.642Z,22.14
2016-04-02T08:57:38.661Z,22.12
2016-04-02T08:58:38.647Z,22.11
2016-04-02T08:59:38.666Z,22.12
2016-04-02T09:00:38.652Z,22.16
2016-04-02T09:01:38.686Z,22.05
2016-04-02T09:02:38.673Z,22.16
2016-04-02T09:03:38.692Z,22.14
2016-04-02T09:04:38.694Z,22.11
2016-04-02T09:05:38.697Z,22.18
2016-04-02T09:06:38.715Z,22.16
2016-04-02T09:07:38.718Z,22.2
2016-04-02T09:08:38.720Z,22.2
2016-04-02T09:09:38.707Z,22.22
2016-04-02T09:10:38.726Z,22.23
2016-04-02T09:11:38.729Z,22.16
2016-04-02T09:12:38.748Z,22.22
2016-04-02T09:13:38.750Z,22.18
2016-04-02T09:14:38.753Z,22.18
2016-04-02T09:15:38.756Z,22.2
2016-04-02T09:16:38.774Z,22.12
2016-04-02T09:17:38.777Z,22.2
2016-04-02T09:18:38.764Z,22.2
2016-04-02T09:19:38.782Z,22.26
2016-04-02T09:20:38.784Z,22.26
2016-04-02T09:21:38.803Z,22.29
2016-04-02T09:22:38.805Z,22.2
2016-04-02T09:23:38.808Z,22.26
2016-04-02T09:24:38.826Z,22.27
2016-04-02T09:25:38.829Z,22.24
2016-04-02T09:26:38.832Z,22.24
2016-04-02T09:27:38.834Z,22.27
2016-04-02T09:28:38.853Z,22.23
2016-04-02T09:29:38.855Z,22.2
2016-04-02T09:30:38.858Z,22.27
2016-04-02T09:31:38.860Z,22.36
2016-04-02T09:32:38.863Z,22.24
2016-04-02T09:33:38.882Z,22.27
2016-04-02T09:34:38.885Z,22.34
2016-04-02T09:35:38.888Z,22.31
2016-04-02T09:36:38.905Z,22.41
2016-04-02T09:37:38.908Z,22.31
2016-04-02T09:38:38.910Z,22.41
2016-04-02T09:39:38.774Z,22.42
2016-04-02T09:40:38.916Z,22.42
2016-04-02T09:41:38.919Z,22.48
2016-04-02T09:42:38.937Z,22.51
2016-04-02T09:43:38.940Z,22.6
2016-04-02T09:44:38.943Z,22.61
2016-04-02T09:45:38.961Z,22.61
2016-04-02T09:46:38.964Z,22.55
2016-04-02T09:47:38.966Z,22.71
2016-04-02T09:48:38.970Z,22.73
2016-04-02T09:49:38.987Z,22.7
2016-04-02T09:50:38.975Z,22.7
2016-04-02T09:51:38.992Z,22.78
2016-04-02T09:52:39.011Z,22.75
2016-04-02T09:53:39.014Z,22.71
2016-04-02T09:54:39.031Z,22.69
2016-04-02T09:55:39.019Z,22.73
2016-04-02T09:56:39.037Z,22.79
2016-04-02T09:57:39.040Z,22.82
2016-04-02T09:58:39.043Z,22.91
2016-04-02T09:59:39.045Z,22.99
2016-04-02T10:00:39.064Z,22.91
2016-04-02T10:01:39.066Z,23
2016-04-02T10:02:39.069Z,23.03
2016-04-02T10:03:39.072Z,23.03
2016-04-02T10:04:39.075Z,23.01
2016-04-02T10:05:39.078Z,22.97
2016-04-02T10:06:39.096Z,22.99
2016-04-02T10:07:39.114Z,23.03
2016-04-02T10:08:38.944Z,23.04
2016-04-02T10:09:39.119Z,23.03
2016-04-02T10:10:39.121Z,23.04
2016-04-02T10:11:39.140Z,23.04
2016-04-02T10:12:39.143Z,23.04
2016-04-02T10:13:39.146Z,23.1
2016-04-02T10:14:39.165Z,23.04
2016-04-02T10:15:39.151Z,23.1
2016-04-02T10:16:39.185Z,23.07
2016-04-02T10:17:39.172Z,23.19
2016-04-02T10:18:39.175Z,23.18
2016-04-02T10:19:39.177Z,23.16
2016-04-02T10:20:39.180Z,23.16
2016-04-02T10:21:39.214Z,23.26
2016-04-02T10:22:39.201Z,23.24
2016-04-02T10:23:39.204Z,23.16
2016-04-02T10:24:39.222Z,23.16
2016-04-02T10:25:39.209Z,23.18
2016-04-02T10:26:39.227Z,23.22
2016-04-02T10:27:39.245Z,23.26
2016-04-02T10:28:39.248Z,23.29
2016-04-02T10:29:39.267Z,23.35
2016-04-02T10:30:39.254Z,23.4
2016-04-02T10:31:39.272Z,23.42
2016-04-02T10:32:39.259Z,23.48
2016-04-02T10:33:39.277Z,23.53
2016-04-02T10:34:39.296Z,23.52
2016-04-02T10:35:39.282Z,23.5
2016-04-02T10:36:39.301Z,23.5
2016-04-02T10:37:39.304Z,23.44
2016-04-02T10:38:39.307Z,23.42
2016-04-02T10:39:39.341Z,23.53
2016-04-02T10:40:39.327Z,23.55
2016-04-02T10:41:39.330Z,23.62
2016-04-02T10:42:39.349Z,23.64
2016-04-02T10:43:39.335Z,23.71
2016-04-02T10:44:39.370Z,23.81
2016-04-02T10:45:39.356Z,23.77
2016-04-02T10:46:39.375Z,23.79
2016-04-02T10:47:39.378Z,23.78
2016-04-02T10:48:39.381Z,23.78
2016-04-02T10:49:39.399Z,23.78
2016-04-02T10:50:39.401Z,23.75
2016-04-02T10:51:39.404Z,23.72
2016-04-02T10:52:39.406Z,23.71
2016-04-02T10:53:39.410Z,23.67
2016-04-02T10:54:39.428Z,23.74
2016-04-02T10:55:39.446Z,23.75
2016-04-02T10:56:39.449Z,23.75
2016-04-02T10:57:39.451Z,23.89
2016-04-02T10:58:39.470Z,23.97
2016-04-02T10:59:39.456Z,23.92
2016-04-02T11:00:39.475Z,23.96
2016-04-02T11:01:39.493Z,23.96
2016-04-02T11:02:39.470Z,24.11
2016-04-02T11:03:39.492Z,23.99
2016-04-02T11:04:39.453Z,24.03
2016-04-02T11:05:39.476Z,24.03
2016-04-02T11:06:39.467Z,23.99
2016-04-02T11:07:39.465Z,23.99
2016-04-02T11:08:39.464Z,24.02
2016-04-02T11:09:39.462Z,24.08
2016-04-02T11:10:39.492Z,24.07
2016-04-02T11:11:39.475Z,24.02
2016-04-02T11:12:39.507Z,24.03
2016-04-02T11:13:39.477Z,24
2016-04-02T11:14:39.494Z,23.97
2016-04-02T11:15:39.495Z,23.97
2016-04-02T11:16:39.496Z,23.9
2016-04-02T11:17:39.545Z,23.94
2016-04-02T11:18:39.517Z,23.97
2016-04-02T11:19:39.519Z,23.85
2016-04-02T11:20:39.521Z,23.94
2016-04-02T11:21:39.539Z,23.9
2016-04-02T11:22:39.542Z,23.97
2016-04-02T11:23:39.560Z,23.89
2016-04-02T11:24:39.563Z,23.89
2016-04-02T11:25:39.582Z,23.85
2016-04-02T11:26:39.568Z,23.87
2016-04-02T11:27:39.587Z,23.82
2016-04-02T11:28:39.589Z,23.84
2016-04-02T11:29:39.592Z,23.78
2016-04-02T11:30:39.611Z,23.81
2016-04-02T11:31:39.613Z,23.81
2016-04-02T11:32:39.631Z,23.79
2016-04-02T11:33:39.619Z,23.79
2016-04-02T11:34:39.637Z,23.84
2016-04-02T11:35:39.640Z,23.82
2016-04-02T11:36:39.658Z,23.79
2016-04-02T11:37:39.645Z,23.81
2016-04-02T11:38:39.663Z,23.81
2016-04-02T11:39:39.682Z,23.81
2016-04-02T11:40:39.668Z,23.78
2016-04-02T11:41:39.671Z,23.84
2016-04-02T11:42:39.705Z,23.82
2016-04-02T11:43:39.692Z,23.78
2016-04-02T11:44:39.727Z,23.78
2016-04-02T11:45:39.713Z,23.78
2016-04-02T11:46:39.716Z,23.87
2016-04-02T11:47:39.734Z,23.87
2016-04-02T11:48:39.737Z,23.84
2016-04-02T11:49:39.755Z,23.87
2016-04-02T11:50:39.743Z,23.85
2016-04-02T11:51:39.777Z,23.85
2016-04-02T11:52:39.779Z,23.85
2016-04-02T11:53:39.782Z,23.87
2016-04-02T11:54:39.768Z,23.85
2016-04-02T11:55:39.803Z,23.97
2016-04-02T11:56:39.789Z,23.87
2016-04-02T11:57:39.808Z,23.96
2016-04-02T11:58:39.795Z,23.94
2016-04-02T11:59:39.813Z,23.92
2016-04-02T12:00:39.817Z,23.94
2016-04-02T12:01:39.819Z,23.93
2016-04-02T12:02:39.853Z,24.04
2016-04-02T12:03:39.839Z,23.99
2016-04-02T12:04:39.858Z,24.03
2016-04-02T12:05:39.861Z,23.93
2016-04-02T12:06:39.941Z,24.07
2016-04-02T12:07:39.866Z,24
2016-04-02T12:08:39.899Z,24.02
2016-04-02T12:09:39.887Z,24.04
2016-04-02T12:10:39.890Z,24.04
2016-04-02T12:11:39.908Z,24.09
2016-04-02T12:12:39.911Z,24.02
2016-04-02T12:13:39.913Z,24.08
2016-04-02T12:14:39.916Z,24.17
2016-04-02T12:15:39.935Z,24.15
2016-04-02T12:16:39.937Z,24.14
2016-04-02T12:17:39.956Z,24.17
2016-04-02T12:18:39.958Z,24.3
2016-04-02T12:19:39.961Z,24.26
2016-04-02T12:20:39.963Z,24.15
2016-04-02T12:21:39.982Z,24.24
2016-04-02T12:22:39.969Z,24.27
2016-04-02T12:23:40.003Z,24.32
2016-04-02T12:24:39.990Z,24.33
2016-04-02T12:25:40.008Z,24.45
2016-04-02T12:26:40.027Z,24.33
2016-04-02T12:27:40.029Z,24.33
2016-04-02T12:28:40.017Z,24.42
2016-04-02T12:29:40.035Z,24.54
2016-04-02T12:30:40.037Z,24.49
2016-04-02T12:31:40.056Z,24.51
2016-04-02T12:32:40.058Z,24.56
2016-04-02T12:33:40.061Z,24.59
2016-04-02T12:34:40.079Z,24.61
2016-04-02T12:35:40.082Z,24.7
2016-04-02T12:36:40.100Z,24.61
2016-04-02T12:37:40.088Z,24.56
2016-04-02T12:38:40.106Z,24.58
2016-04-02T12:39:40.108Z,24.56
2016-04-02T12:40:40.111Z,24.56
2016-04-02T12:41:40.113Z,24.52
2016-04-02T12:42:40.133Z,24.44
2016-04-02T12:43:40.135Z,24.54
2016-04-02T12:44:40.153Z,24.42
2016-04-02T12:45:40.156Z,24.44
2016-04-02T12:46:40.174Z,24.42
2016-04-02T12:47:40.161Z,24.42
2016-04-02T12:48:40.180Z,24.42
2016-04-02T12:49:40.198Z,24.37
2016-04-02T12:50:40.185Z,24.42
2016-04-02T12:51:40.203Z,24.39
2016-04-02T12:52:40.207Z,24.46
2016-04-02T12:53:40.209Z,24.49
2016-04-02T12:54:40.243Z,24.51